createdAt,value
2019-04-21T00:01:22.449Z,29.47
2019-04-21T00:03:57.123Z,30.13
2019-04-21T00:06:42.218Z,30.67
2019-04-21T00:09:19.124Z,33.00
2019-04-21T00:11:49.580Z,31.80
2019-04-21T00:14:11.334Z,33.07
2019-04-21T00:16:36.814Z,35.90
2019-04-21T00:19:20.856Z,32.77
2019-04-21T00:21:54.488Z,35.90
2019-04-21T00:24:28.898Z,33.33
2019-04-21T00:27:05.249Z,30.07
2019-04-21T00:29:46.912Z,31.60
2019-04-21T00:32:06.894Z,32.77
2019-04-21T00:34:23.613Z,34.80
2019-04-21T00:37:05.878Z,34.00
2019-04-21T00:42:14.090Z,28.37
2019-04-21T00:44:38.812Z,29.37
2019-04-21T00:47:25.242Z,29.70
2019-04-21T00:49:56.651Z,31.23
2019-04-21T00:52:56.597Z,31.00
2019-04-21T00:55:40.067Z,32.40
2019-04-21T00:58:10.493Z,30.80
2019-04-21T01:00:40.796Z,30.07
2019-04-21T01:03:14.436Z,30.47
2019-04-21T01:05:49.814Z,29.77
2019-04-21T01:08:15.812Z,33.90
2019-04-21T01:10:38.078Z,32.57
2019-04-21T01:13:23.502Z,35.73
2019-04-21T01:15:53.320Z,29.20
2019-04-21T01:18:20.614Z,31.40
2019-04-21T01:20:31.223Z,31.83
2019-04-21T01:23:02.000Z,32.70
2019-04-21T01:25:40.459Z,31.77
2019-04-21T01:28:18.951Z,30.90
2019-04-21T01:30:54.812Z,30.07
2019-04-21T01:33:26.041Z,28.77
2019-04-21T01:35:54.982Z,30.23
2019-04-21T01:38:36.919Z,33.40
2019-04-21T01:41:09.983Z,33.70
2019-04-21T01:43:27.578Z,33.47
2019-04-21T01:46:04.658Z,30.37
2019-04-21T01:48:30.671Z,30.00
2019-04-21T01:51:01.584Z,30.37
2019-04-21T01:54:06.454Z,32.63
2019-04-21T01:56:53.974Z,29.83
2019-04-21T01:59:18.532Z,32.53
2019-04-21T02:02:01.727Z,28.93
2019-04-21T02:04:36.449Z,31.63
2019-04-21T02:07:02.857Z,34.00
2019-04-21T02:09:38.337Z,31.90
2019-04-21T02:12:14.125Z,32.00
2019-04-21T02:14:47.390Z,30.40
2019-04-21T02:17:14.828Z,28.40
2019-04-21T02:19:37.818Z,31.07
2019-04-21T02:22:10.725Z,30.43
2019-04-21T02:24:49.366Z,27.20
2019-04-21T02:27:21.464Z,28.43
2019-04-21T02:29:55.473Z,27.73
2019-04-21T02:32:37.087Z,26.00
2019-04-21T02:35:14.745Z,32.07
2019-04-21T02:42:38.014Z,25.93
2019-04-21T02:45:09.279Z,23.33
2019-04-21T02:47:49.624Z,24.90
2019-04-21T02:50:09.515Z,29.70
2019-04-21T02:52:52.754Z,24.30
2019-04-21T02:55:22.067Z,25.77
2019-04-21T02:57:51.884Z,27.63
2019-04-21T03:03:09.426Z,23.57
2019-04-21T03:08:27.931Z,25.00
2019-04-21T03:10:57.223Z,26.60
2019-04-21T03:16:01.241Z,25.37
2019-04-21T03:18:30.242Z,25.23
2019-04-21T03:21:05.184Z,24.93
2019-04-21T03:23:33.656Z,24.77
2019-04-21T03:26:00.851Z,25.77
2019-04-21T03:28:30.171Z,27.53
2019-04-21T03:31:31.246Z,27.90
2019-04-21T03:36:38.455Z,27.27
2019-04-21T03:38:37.539Z,28.37
2019-04-21T03:41:04.173Z,28.50
2019-04-21T03:43:37.353Z,28.13
2019-04-21T03:46:08.165Z,28.47
2019-04-21T03:48:41.025Z,28.87
2019-04-21T03:51:12.133Z,25.07
2019-04-21T03:53:40.371Z,26.63
2019-04-21T03:56:16.046Z,26.50
2019-04-21T04:01:34.861Z,24.03
2019-04-21T04:04:30.573Z,23.20
2019-04-21T04:10:03.585Z,22.53
2019-04-21T04:12:32.823Z,23.10
2019-04-21T04:15:07.193Z,20.23
2019-04-21T04:17:36.710Z,19.73
2019-04-21T04:20:03.954Z,23.47
2019-04-21T04:22:41.051Z,23.87
2019-04-21T04:25:07.023Z,18.83
2019-04-21T04:27:53.497Z,18.43
2019-04-21T04:30:21.788Z,20.00
2019-04-21T04:32:38.537Z,16.90
2019-04-21T04:35:10.332Z,18.67
2019-04-21T04:37:46.969Z,16.27
2019-04-21T04:42:58.413Z,19.50
2019-04-21T04:50:45.526Z,17.47
2019-04-21T04:53:01.582Z,20.20
2019-04-21T04:55:43.297Z,19.62
2019-04-21T05:00:48.203Z,21.07
2019-04-21T05:03:13.504Z,20.33
2019-04-21T05:06:32.711Z,18.63
2019-04-21T05:11:30.838Z,17.00
2019-04-21T05:13:55.876Z,16.93
2019-04-21T05:16:36.597Z,16.13
2019-04-21T05:19:06.538Z,18.60
2019-04-21T05:21:30.151Z,15.83
2019-04-21T05:23:47.152Z,16.07
2019-04-21T05:26:09.806Z,16.53
2019-04-21T05:28:42.064Z,15.27
2019-04-21T05:31:39.938Z,15.27
2019-04-21T05:34:10.811Z,13.23
2019-04-21T05:36:50.304Z,14.60
2019-04-21T05:39:40.688Z,15.10
2019-04-21T05:42:00.785Z,14.70
2019-04-21T05:44:58.318Z,14.80
2019-04-21T05:49:56.025Z,17.03
2019-04-21T05:52:26.574Z,12.47
2019-04-21T05:55:09.593Z,12.97
2019-04-21T05:57:33.606Z,12.50
2019-04-21T06:00:13.619Z,12.57
2019-04-21T06:02:36.892Z,13.07
2019-04-21T06:05:34.902Z,12.57
2019-04-21T06:07:41.426Z,12.63
2019-04-21T06:10:12.316Z,10.57
2019-04-21T06:12:57.858Z,10.50
2019-04-21T06:15:13.766Z,10.30
2019-04-21T06:17:54.394Z,9.20
2019-04-21T06:20:21.176Z,10.60
2019-04-21T06:22:53.216Z,9.60
2019-04-21T06:25:43.120Z,8.97
2019-04-21T06:27:51.201Z,8.97
2019-04-21T06:30:29.019Z,8.63
2019-04-21T06:33:13.261Z,12.17
2019-04-21T06:36:11.352Z,10.13
2019-04-21T06:38:58.289Z,12.03
2019-04-21T06:41:21.567Z,9.37
2019-04-21T06:43:56.247Z,10.47
2019-04-21T06:46:26.136Z,9.63
2019-04-21T06:48:57.070Z,9.43
2019-04-21T06:53:59.642Z,8.50
2019-04-21T06:56:34.898Z,8.67
2019-04-21T06:58:55.913Z,9.20
2019-04-21T07:01:30.833Z,7.80
2019-04-21T07:04:09.888Z,7.93
2019-04-21T07:06:40.259Z,9.20
2019-04-21T07:09:14.010Z,25.40
2019-04-21T07:11:25.266Z,11.00
2019-04-21T07:14:22.631Z,8.30
2019-04-21T07:16:41.545Z,7.70
2019-04-21T07:19:14.528Z,7.80
2019-04-21T07:21:43.486Z,8.03
2019-04-21T07:24:13.909Z,8.40
2019-04-21T07:26:42.422Z,8.13
2019-04-21T07:29:14.093Z,7.47
2019-04-21T07:31:48.184Z,8.03
2019-04-21T07:34:22.967Z,9.10
2019-04-21T07:36:50.879Z,7.33
2019-04-21T07:39:10.692Z,6.60
2019-04-21T07:41:45.135Z,9.03
2019-04-21T07:44:08.798Z,11.33
2019-04-21T07:46:43.143Z,7.43
2019-04-21T07:49:43.617Z,6.57
2019-04-21T07:52:28.643Z,7.92
2019-04-21T07:55:05.625Z,8.18
2019-04-21T07:57:23.585Z,7.23
2019-04-21T08:00:12.509Z,7.20
2019-04-21T08:02:29.435Z,6.97
2019-04-21T08:05:07.597Z,7.28
2019-04-21T08:07:45.054Z,7.15
2019-04-21T08:10:03.187Z,7.17
2019-04-21T08:12:33.730Z,7.42
2019-04-21T08:15:14.011Z,6.83
2019-04-21T08:17:36.500Z,7.28
2019-04-21T08:20:09.583Z,8.03
2019-04-21T08:22:41.234Z,7.72
2019-04-21T08:25:10.294Z,6.58
2019-04-21T08:27:47.781Z,7.28
2019-04-21T08:30:12.855Z,9.68
2019-04-21T08:32:51.573Z,6.20
2019-04-21T08:37:46.575Z,7.08
2019-04-21T08:42:52.128Z,7.28
2019-04-21T08:45:22.666Z,6.15
2019-04-21T08:47:51.957Z,6.55
2019-04-21T08:50:20.729Z,6.60
2019-04-21T08:52:56.409Z,7.35
2019-04-21T08:55:39.710Z,6.60
2019-04-21T08:58:39.441Z,9.18
2019-04-21T09:01:22.524Z,6.85
2019-04-21T09:04:17.107Z,7.47
2019-04-21T09:07:04.902Z,5.15
2019-04-21T09:09:16.516Z,6.60
2019-04-21T09:11:47.827Z,7.30
2019-04-21T09:14:22.340Z,8.75
2019-04-21T09:16:47.732Z,5.87
2019-04-21T09:19:26.318Z,5.80
2019-04-21T09:24:22.036Z,6.20
2019-04-21T09:26:51.405Z,6.05
2019-04-21T09:29:15.910Z,5.90
2019-04-21T09:31:41.798Z,5.55
2019-04-21T09:34:14.329Z,5.47
2019-04-21T09:36:46.441Z,5.47
2019-04-21T09:39:18.316Z,8.14
2019-04-21T09:41:45.018Z,5.72
2019-04-21T09:44:22.080Z,5.70
2019-04-21T09:46:50.625Z,7.28
2019-04-21T09:49:22.497Z,5.67
2019-04-21T09:51:50.412Z,5.00
2019-04-21T09:54:26.022Z,6.50
2019-04-21T09:56:58.597Z,5.43
2019-04-21T09:59:28.430Z,5.00
2019-04-21T10:02:05.660Z,4.87
2019-04-21T10:04:26.574Z,7.40
2019-04-21T10:06:56.318Z,4.90
2019-04-21T10:09:26.409Z,5.67
2019-04-21T10:11:56.996Z,4.40
2019-04-21T10:14:26.528Z,5.07
2019-04-21T10:17:15.021Z,7.17
2019-04-21T10:19:44.467Z,5.13
2019-04-21T10:22:14.839Z,4.90
2019-04-21T10:24:44.972Z,5.00
2019-04-21T10:27:14.758Z,4.50
2019-04-21T10:29:45.402Z,3.90
2019-04-21T10:32:16.326Z,7.57
2019-04-21T10:34:47.520Z,29.10
2019-04-21T10:37:17.079Z,6.87
2019-04-21T10:39:47.538Z,4.73
2019-04-21T10:42:17.397Z,5.13
2019-04-21T10:44:47.194Z,4.80
2019-04-21T10:47:16.854Z,5.17
2019-04-21T10:49:46.596Z,4.53
2019-04-21T10:52:24.784Z,4.63
2019-04-21T10:55:11.244Z,10.27
2019-04-21T10:57:30.511Z,7.97
2019-04-21T11:00:01.363Z,4.37
2019-04-21T11:02:46.520Z,5.40
2019-04-21T11:05:16.734Z,3.73
2019-04-21T11:08:01.205Z,3.67
2019-04-21T11:10:22.353Z,4.73
2019-04-21T11:12:52.669Z,4.67
2019-04-21T11:15:25.474Z,3.60
2019-04-21T11:17:55.714Z,3.30
2019-04-21T11:20:25.207Z,4.77
2019-04-21T11:22:55.581Z,5.30
2019-04-21T11:25:26.231Z,4.53
2019-04-21T11:27:56.069Z,5.40
2019-04-21T11:30:25.652Z,3.87
2019-04-21T11:32:55.383Z,14.03
2019-04-21T11:35:25.477Z,5.80
2019-04-21T11:38:04.618Z,4.67
2019-04-21T11:40:27.674Z,5.27
2019-04-21T11:42:58.012Z,4.43
2019-04-21T11:45:32.544Z,4.53
2019-04-21T11:48:28.336Z,3.70
2019-04-21T11:50:59.157Z,3.03
2019-04-21T11:53:28.921Z,3.50
2019-04-21T11:55:59.064Z,3.20
2019-04-21T11:58:29.761Z,4.77
2019-04-21T12:01:01.237Z,5.53
2019-04-21T12:03:31.684Z,3.20
2019-04-21T12:06:01.552Z,3.63
2019-04-21T12:08:39.314Z,3.50
2019-04-21T12:11:03.255Z,5.53
2019-04-21T12:13:34.053Z,4.60
2019-04-21T12:16:05.119Z,10.50
2019-04-21T12:18:35.052Z,17.07
2019-04-21T12:21:05.285Z,6.13
2019-04-21T12:23:34.729Z,6.77
2019-04-21T12:26:05.133Z,4.07
2019-04-21T12:28:34.642Z,3.30
2019-04-21T12:31:05.833Z,5.27
2019-04-21T12:34:03.798Z,3.63
2019-04-21T12:36:33.836Z,3.20
2019-04-21T12:39:05.561Z,3.07
2019-04-21T12:41:34.703Z,3.17
2019-04-21T12:44:04.607Z,3.33
2019-04-21T12:46:34.061Z,3.80
2019-04-21T12:49:04.135Z,4.07
2019-04-21T12:51:33.793Z,3.70
2019-04-21T12:54:03.762Z,3.80
2019-04-21T12:56:33.715Z,3.20
2019-04-21T12:59:04.948Z,3.13
2019-04-21T13:01:34.999Z,2.70
2019-04-21T13:04:05.902Z,2.90
2019-04-21T13:06:35.530Z,2.77
2019-04-21T13:09:10.535Z,3.07
2019-04-21T13:11:39.271Z,4.40
2019-04-21T13:14:08.913Z,3.77
2019-04-21T13:16:39.206Z,3.13
2019-04-21T13:19:09.341Z,3.97
2019-04-21T13:21:40.352Z,4.13
2019-04-21T13:24:09.871Z,4.50
2019-04-21T13:26:47.389Z,3.63
2019-04-21T13:29:12.178Z,4.13
2019-04-21T13:31:44.521Z,4.70
2019-04-21T13:34:14.098Z,8.70
2019-04-21T13:36:43.763Z,6.77
2019-04-21T13:39:55.589Z,3.60
2019-04-21T13:42:13.240Z,4.63
2019-04-21T13:44:37.080Z,4.63
2019-04-21T13:47:07.141Z,4.10
2019-04-21T13:49:37.143Z,3.90
2019-04-21T13:52:06.829Z,5.07
2019-04-21T13:54:37.734Z,4.87
2019-04-21T13:57:10.359Z,7.67
2019-04-21T13:59:40.370Z,3.73
2019-04-21T14:02:11.147Z,3.97
2019-04-21T14:04:41.259Z,3.87
2019-04-21T14:07:12.124Z,6.90
2019-04-21T14:09:49.995Z,3.90
2019-04-21T14:12:17.210Z,11.00
2019-04-21T14:14:48.265Z,4.17
2019-04-21T14:17:19.159Z,3.47
2019-04-21T14:19:48.981Z,4.67
2019-04-21T14:22:20.229Z,10.10
2019-04-21T14:24:50.271Z,4.60
2019-04-21T14:27:20.469Z,5.00
2019-04-21T14:29:51.374Z,4.80
2019-04-21T14:32:22.358Z,5.03
2019-04-21T14:34:53.886Z,4.63
2019-04-21T14:37:24.579Z,3.90
2019-04-21T14:40:01.964Z,3.23
2019-04-21T14:42:26.473Z,3.20
2019-04-21T14:44:56.841Z,5.73
2019-04-21T14:47:39.950Z,4.87
2019-04-21T14:50:20.364Z,3.70
2019-04-21T14:53:10.210Z,6.57
2019-04-21T14:55:41.677Z,5.47
2019-04-21T14:58:11.032Z,5.10
2019-04-21T15:00:57.941Z,4.93
2019-04-21T15:03:28.135Z,3.83
2019-04-21T15:05:57.813Z,4.03
2019-04-21T15:08:27.306Z,3.10
2019-04-21T15:10:56.960Z,3.83
2019-04-21T15:13:27.870Z,3.30
2019-04-21T15:15:57.546Z,4.93
2019-04-21T15:18:28.503Z,4.53
2019-04-21T15:20:59.260Z,4.10
2019-04-21T15:23:30.548Z,6.07
2019-04-21T15:26:00.059Z,6.07
2019-04-21T15:28:32.107Z,4.40
2019-04-21T15:31:00.781Z,4.00
2019-04-21T15:33:30.659Z,7.53
2019-04-21T15:36:00.815Z,7.47
2019-04-21T15:38:31.851Z,4.43
2019-04-21T15:41:06.405Z,2.90
2019-04-21T15:43:33.464Z,11.73
2019-04-21T15:46:03.025Z,5.40
2019-04-21T15:48:33.075Z,7.10
2019-04-21T15:51:05.651Z,4.30
2019-04-21T15:53:34.437Z,4.00
2019-04-21T15:56:22.912Z,3.67
2019-04-21T15:59:01.021Z,3.90
2019-04-21T16:01:48.511Z,3.17
2019-04-21T16:04:18.872Z,38.20
2019-04-21T16:06:49.910Z,14.80
2019-04-21T16:09:23.286Z,4.20
2019-04-21T16:11:51.645Z,21.77
2019-04-21T16:14:22.634Z,4.73
2019-04-21T16:16:53.574Z,8.13
2019-04-21T16:19:23.271Z,11.10
2019-04-21T16:21:53.060Z,21.73
2019-04-21T16:24:23.276Z,4.87
2019-04-21T16:26:53.020Z,3.87
2019-04-21T16:29:23.034Z,5.23
2019-04-21T16:31:53.266Z,6.27
2019-04-21T16:34:35.398Z,3.62
2019-04-21T16:36:54.292Z,6.20
2019-04-21T16:39:25.229Z,5.87
2019-04-21T16:41:56.255Z,4.17
2019-04-21T16:44:27.382Z,5.20
2019-04-21T16:46:59.337Z,49.13
2019-04-21T16:49:29.570Z,6.25
2019-04-21T16:52:16.114Z,6.60
2019-04-21T16:54:49.682Z,4.30
2019-04-21T16:57:42.005Z,4.03
2019-04-21T17:00:29.732Z,5.40
2019-04-21T17:02:48.539Z,4.50
2019-04-21T17:05:20.316Z,25.37
2019-04-21T17:07:52.645Z,5.40
2019-04-21T17:10:22.438Z,5.57
2019-04-21T17:12:53.822Z,5.03
2019-04-21T17:15:40.416Z,29.67
2019-04-21T17:18:13.435Z,6.40
2019-04-21T17:20:38.163Z,6.70
2019-04-21T17:22:59.647Z,5.80
2019-04-21T17:25:29.677Z,7.97
2019-04-21T17:27:59.235Z,7.00
2019-04-21T17:30:28.697Z,8.40
2019-04-21T17:32:59.496Z,6.47
2019-04-21T17:35:29.089Z,10.70
2019-04-21T17:37:58.499Z,8.90
2019-04-21T17:40:29.572Z,8.30
2019-04-21T17:43:04.017Z,7.90
2019-04-21T17:45:31.126Z,9.20
2019-04-21T17:48:06.033Z,7.87
2019-04-21T17:50:57.065Z,11.07
2019-04-21T17:54:01.211Z,7.77
2019-04-21T17:56:59.875Z,12.37
2019-04-21T17:59:27.977Z,7.80
2019-04-21T18:01:56.286Z,8.70
2019-04-21T18:04:24.339Z,10.93
2019-04-21T18:07:27.361Z,12.03
2019-04-21T18:10:04.744Z,8.60
2019-04-21T18:12:34.872Z,8.33
2019-04-21T18:14:56.264Z,6.70
2019-04-21T18:17:18.894Z,8.13
2019-04-21T18:19:51.284Z,8.30
2019-04-21T18:22:43.567Z,7.87
2019-04-21T18:25:28.072Z,9.10
2019-04-21T18:27:44.796Z,7.33
2019-04-21T18:30:52.288Z,6.37
2019-04-21T18:33:29.916Z,7.20
2019-04-21T18:36:22.292Z,9.20
2019-04-21T18:39:10.307Z,15.17
2019-04-21T18:41:30.022Z,7.50
2019-04-21T18:44:28.221Z,6.97
2019-04-21T18:47:16.572Z,9.13
2019-04-21T18:49:35.676Z,7.00
2019-04-21T18:52:20.301Z,7.27
2019-04-21T18:55:00.291Z,7.27
2019-04-21T18:57:24.972Z,8.63
2019-04-21T18:59:47.636Z,8.10
2019-04-21T19:02:18.988Z,8.43
2019-04-21T19:04:48.422Z,7.53
2019-04-21T19:07:37.875Z,8.43
2019-04-21T19:10:22.817Z,8.20
2019-04-21T19:13:07.923Z,13.67
2019-04-21T19:15:07.675Z,9.90
2019-04-21T19:22:41.956Z,10.67
2019-04-21T19:25:16.940Z,8.20
2019-04-21T19:27:48.809Z,8.73
2019-04-21T19:32:47.750Z,10.27
2019-04-21T19:35:05.511Z,8.63
2019-04-21T19:37:43.206Z,11.10
2019-04-21T19:40:26.912Z,9.53
2019-04-21T19:42:50.328Z,12.90
2019-04-21T19:45:22.423Z,9.70
2019-04-21T19:47:59.665Z,10.57
2019-04-21T19:50:35.024Z,9.30
2019-04-21T19:52:55.340Z,7.90
2019-04-21T19:55:18.132Z,11.07
2019-04-21T19:57:49.240Z,8.30
2019-04-21T20:00:19.471Z,10.77
2019-04-21T20:02:50.311Z,10.50
2019-04-21T20:05:27.166Z,9.83
2019-04-21T20:08:06.639Z,10.17
2019-04-21T20:10:44.461Z,7.87
2019-04-21T20:13:14.750Z,8.60
2019-04-21T20:15:46.682Z,10.40
2019-04-21T20:18:08.949Z,7.67
2019-04-21T20:20:28.939Z,8.83
2019-04-21T20:22:59.402Z,7.70
2019-04-21T20:25:30.840Z,8.05
2019-04-21T20:28:07.641Z,9.57
2019-04-21T20:30:48.983Z,8.03
2019-04-21T20:33:42.713Z,7.83
2019-04-21T20:35:59.396Z,7.47
2019-04-21T20:38:19.172Z,8.90
2019-04-21T20:40:45.956Z,8.80
2019-04-21T20:43:25.122Z,7.53
2019-04-21T20:45:59.256Z,9.13
2019-04-21T20:48:21.159Z,6.80
2019-04-21T20:51:00.259Z,8.43
2019-04-21T20:53:32.884Z,8.07
2019-04-21T20:55:58.391Z,9.23
2019-04-21T20:58:29.540Z,9.33
2019-04-21T21:01:20.855Z,12.43
2019-04-21T21:03:37.785Z,13.60
2019-04-21T21:06:02.265Z,9.70
2019-04-21T21:08:39.970Z,12.20
2019-04-21T21:11:07.038Z,10.30
2019-04-21T21:13:42.857Z,7.77
2019-04-21T21:21:15.219Z,9.10
2019-04-21T21:23:51.373Z,8.47
2019-04-21T21:26:20.101Z,11.03
2019-04-21T21:28:42.954Z,8.47
2019-04-21T21:31:25.070Z,7.00
2019-04-21T21:36:27.292Z,8.30
2019-04-21T21:39:03.118Z,7.83
2019-04-21T21:41:19.834Z,10.33
2019-04-21T21:43:44.827Z,9.13
2019-04-21T21:46:28.587Z,8.83
2019-04-21T21:48:59.070Z,7.57
2019-04-21T21:51:29.065Z,7.93
2019-04-21T21:53:46.905Z,7.17
2019-04-21T21:56:16.486Z,8.33
2019-04-21T21:58:49.666Z,8.10
2019-04-21T22:01:21.804Z,7.57
2019-04-21T22:04:01.653Z,8.23
2019-04-21T22:06:23.920Z,7.43
2019-04-21T22:08:52.377Z,6.57
2019-04-21T22:11:22.188Z,6.80
2019-04-21T22:13:58.816Z,7.40
2019-04-21T22:16:28.626Z,7.37
2019-04-21T22:21:47.398Z,7.43
2019-04-21T22:24:05.694Z,7.93
2019-04-21T22:26:29.386Z,7.80
2019-04-21T22:28:58.967Z,7.77
2019-04-21T22:31:33.683Z,8.63
2019-04-21T22:34:05.217Z,7.90
2019-04-21T22:36:44.706Z,11.37
2019-04-21T22:39:19.687Z,7.77
2019-04-21T22:41:39.203Z,9.17
2019-04-21T22:44:04.969Z,7.60
2019-04-21T22:46:36.039Z,8.43
2019-04-21T22:49:09.324Z,8.30
2019-04-21T22:51:42.729Z,8.47
2019-04-21T22:54:08.352Z,8.87
2019-04-21T22:56:50.485Z,7.90
2019-04-21T22:59:15.068Z,9.23
2019-04-21T23:01:43.488Z,8.37
2019-04-21T23:04:13.884Z,7.92
2019-04-21T23:06:44.464Z,8.47
2019-04-21T23:09:15.032Z,9.00
2019-04-21T23:11:48.242Z,10.17
2019-04-21T23:14:17.560Z,7.53
2019-04-21T23:16:51.711Z,6.97
2019-04-21T23:19:34.782Z,7.57
2019-04-21T23:22:09.484Z,7.03
2019-04-21T23:24:49.994Z,6.90
2019-04-21T23:27:09.148Z,7.23
2019-04-21T23:29:52.750Z,8.03
2019-04-21T23:32:12.893Z,6.50
2019-04-21T23:34:32.469Z,9.43
2019-04-21T23:37:06.713Z,8.40
2019-04-21T23:39:31.996Z,7.90
2019-04-21T23:42:02.386Z,7.43
2019-04-21T23:44:32.870Z,7.40
2019-04-21T23:47:06.465Z,7.90
2019-04-21T23:49:46.216Z,6.70
2019-04-21T23:52:09.079Z,6.67
2019-04-21T23:54:37.493Z,6.97
2019-04-21T23:57:14.238Z,6.40
2019-04-21T23:59:44.727Z,6.73
